Time;durP1;ratioP1;P1;durP2;ratioP2;P2;SDS_P1;SDS_P2;PMS_P1;PMS_P2;Temp;Humidity;BMP_temperature;BMP_pressure;BME280_temperature;BME280_humidity;BME280_pressure;Samples;Min_cycle;Max_cycle;Signal;HPM_P1;HPM_P2
2022/05/10 00:00:46;;;;;;;4.70;3.43;;;;;;;7.81;63.87;101508.64;1773306;80;21107;-75
2022/05/10 00:03:13;;;;;;;5.90;3.37;;;;;;;7.77;63.92;101511.73;1773768;80;20960;-76
2022/05/10 00:05:42;;;;;;;6.10;3.30;;;;;;;7.76;63.96;101506.50;1774144;80;21453;-74
2022/05/10 00:08:14;;;;;;;6.40;3.10;;;;;;;7.71;63.98;101505.25;1774181;80;21592;-74
2022/05/10 00:10:43;;;;;;;4.47;3.13;;;;;;;7.69;64.13;101509.61;1773898;80;21016;-74
2022/05/10 00:13:11;;;;;;;6.17;3.30;;;;;;;7.66;64.25;101504.86;1774118;80;21137;-75
2022/05/10 00:15:40;;;;;;;7.67;3.70;;;;;;;7.64;64.45;101506.16;1773831;80;20977;-74
2022/05/10 00:18:14;;;;;;;7.43;3.63;;;;;;;7.63;64.51;101507.05;1774120;80;21024;-74
2022/05/10 00:20:43;;;;;;;5.03;3.10;;;;;;;7.61;64.70;101500.97;1773865;80;20973;-74
2022/05/10 00:23:10;;;;;;;6.17;3.10;;;;;;;7.60;64.80;101497.95;1774120;80;21505;-75
2022/05/10 00:25:38;;;;;;;7.77;3.60;;;;;;;7.58;64.85;101495.33;1773873;80;21119;-74
2022/05/10 00:28:06;;;;;;;7.87;3.57;;;;;;;7.56;64.90;101495.77;1774056;80;21016;-75
2022/05/10 00:30:34;;;;;;;4.90;2.90;;;;;;;7.53;64.95;101494.49;1773757;80;21012;-74
2022/05/10 00:33:01;;;;;;;4.33;2.83;;;;;;;7.48;64.96;101489.77;1774007;80;21059;-75
2022/05/10 00:35:31;;;;;;;4.43;3.00;;;;;;;7.45;64.99;101491.52;1773857;80;20988;-74
2022/05/10 00:38:02;;;;;;;5.35;2.67;;;;;;;7.42;65.04;101482.41;1774424;80;21756;-74
2022/05/10 00:40:32;;;;;;;;;;;;;;;7.41;65.10;101481.99;1776555;80;21051;-74
2022/05/10 00:43:33;;;;;;;4.90;2.67;;;;;;;7.37;65.42;101480.71;1774689;80;20517;-74
2022/05/10 00:46:17;;;;;;;7.23;3.00;;;;;;;7.35;65.24;101477.23;1774080;80;21517;-75
2022/05/10 00:49:02;;;;;;;6.63;2.60;;;;;;;7.31;65.26;101475.51;1773773;80;21569;-75
2022/05/10 00:51:40;;;;;;;7.07;2.70;;;;;;;7.29;65.23;101473.38;1773801;80;21125;-75
2022/05/10 00:54:48;;;;;;;4.03;2.67;;;;;;;7.28;65.19;101470.76;1773615;80;21024;-75
2022/05/10 00:57:54;;;;;;;3.70;2.33;;;;;;;7.24;65.29;101463.84;1773445;80;21024;-75
2022/05/10 01:00:27;;;;;;;5.57;2.70;;;;;;;7.20;65.37;101464.72;1712302;83;21534;-77
2022/05/10 01:03:05;;;;;;;6.47;2.87;;;;;;;7.15;65.38;101459.56;1712454;83;21117;-75
2022/05/10 01:05:49;;;;;;;4.30;2.87;;;;;;;7.13;65.49;101461.30;1696365;84;21993;-75
2022/05/10 01:08:39;;;;;;;4.93;2.63;;;;;;;7.08;65.60;101465.23;1695991;84;21062;-75
2022/05/10 01:11:28;;;;;;;3.80;2.90;;;;;;;7.05;65.89;101459.17;1696213;84;21039;-76
2022/05/10 01:14:08;;;;;;;5.70;2.97;;;;;;;7.02;66.05;101456.14;1696362;84;21011;-76
2022/05/10 01:16:35;;;;;;;;;;;;;;;7.02;66.25;101450.06;1699212;84;22295;-75
2022/05/10 01:19:02;;;;;;;4.73;2.60;;;;;;;6.98;66.50;101457.02;1696191;84;21072;-74
2022/05/10 01:22:11;;;;;;;6.80;2.80;;;;;;;6.95;66.36;101448.36;1696382;84;21080;-74
2022/05/10 01:25:15;;;;;;;4.87;2.70;;;;;;;6.91;66.42;101439.25;1696296;84;21134;-75
2022/05/10 01:27:50;;;;;;;6.00;2.60;;;;;;;6.89;66.32;101442.73;1664953;84;21038;-76
2022/05/10 01:30:24;;;;;;;4.87;2.60;;;;;;;6.84;66.34;101437.54;1696252;84;21133;-76
2022/05/10 01:36:27;;;;;;;6.47;2.87;;;;;;;6.79;66.60;101435.42;1676663;84;21068;-75
2022/05/10 01:39:19;;;;;;;7.70;3.10;;;;;;;6.77;66.85;101433.25;1675166;85;21060;-76
2022/05/10 01:42:05;;;;;;;6.57;3.00;;;;;;;6.73;67.04;101427.61;1678645;81;38067;-75
2022/05/10 01:44:59;;;;;;;4.73;3.10;;;;;;;6.72;67.31;101429.80;1770091;81;21012;-75
2022/05/10 01:47:43;;;;;;;5.00;2.80;;;;;;;6.70;67.61;101428.93;1769963;81;21303;-75
2022/05/10 01:50:24;;;;;;;5.33;2.90;;;;;;;6.70;67.75;101428.93;1768061;81;21516;-75
2022/05/10 01:53:02;;;;;;;5.65;2.75;;;;;;;6.69;67.98;101429.81;1770467;81;21036;-75
2022/05/10 01:55:46;;;;;;;5.57;3.23;;;;;;;6.72;68.28;101427.19;1770052;81;21055;-76
2022/05/10 01:58:27;;;;;;;4.53;3.17;;;;;;;6.73;68.30;101422.39;1770225;81;21055;-76
2022/05/10 02:01:06;;;;;;;5.03;3.12;;;;;;;6.73;68.44;101422.39;1770219;81;21781;-75
2022/05/10 02:03:59;;;;;;;5.60;3.10;;;;;;;6.74;68.65;101416.78;1724896;83;21003;-75
2022/05/10 02:06:53;;;;;;;4.73;3.17;;;;;;;6.72;68.68;101421.98;1726254;83;21469;-75
2022/05/10 02:09:34;;;;;;;6.10;2.93;;;;;;;6.68;68.79;101415.93;1725990;83;21015;-75
2022/05/10 02:12:15;;;;;;;5.30;3.23;;;;;;;6.67;68.98;101416.78;1726194;83;21078;-75
2022/05/10 02:15:00;;;;;;;;;;;;;;;6.67;69.05;101414.62;1728896;83;22321;-75
2022/05/10 02:17:51;;;;;;;6.83;2.87;;;;;;;6.66;69.38;101408.55;1751323;81;20193;-75
2022/05/10 02:20:29;;;;;;;5.17;3.08;;;;;;;6.65;69.25;101404.22;1756137;81;21046;-76
2022/05/10 02:23:16;;;;;;;3.90;2.73;;;;;;;6.64;69.28;101406.81;1780639;80;21565;-75
2022/05/10 02:25:48;;;;;;;6.97;3.40;;;;;;;6.61;69.33;101395.97;1755476;81;21042;-75
2022/05/10 02:28:26;;;;;;;5.23;3.07;;;;;;;6.59;69.36;101389.04;1780959;80;21120;-75
2022/05/10 02:30:57;;;;;;;3.83;2.80;;;;;;;6.57;69.44;101395.58;1749079;81;21015;-75
2022/05/10 02:33:24;;;;;;;;;;;;;;;6.53;69.49;101392.54;1816630;79;21104;-75
2022/05/10 02:35:58;;;;;;;6.13;2.63;;;;;;;6.51;69.72;101395.58;1813728;79;20166;-75
2022/05/10 02:38:37;;;;;;;5.73;3.33;;;;;;;6.46;69.63;101398.22;1813318;79;21104;-75
2022/05/10 02:41:21;;;;;;;5.00;3.53;;;;;;;6.43;69.64;101395.63;1842443;77;22160;-75
2022/05/10 02:43:57;;;;;;;7.63;2.90;;;;;;;6.39;69.67;101395.64;1858911;77;20976;-75
2022/05/10 02:46:27;;;;;;;5.67;3.70;;;;;;;6.37;69.71;101397.38;1859062;77;21070;-75
2022/05/10 02:48:54;;;;;;;4.37;2.93;;;;;;;6.32;69.67;101388.30;1859297;77;21011;-75
2022/05/10 02:51:22;;;;;;;5.47;2.80;;;;;;;6.31;69.79;101387.85;1859084;77;21051;-76
2022/05/10 02:53:49;;;;;;;4.90;2.90;;;;;;;6.29;69.82;101382.22;1859273;77;21098;-75
2022/05/10 02:56:23;;;;;;;7.13;3.10;;;;;;;6.25;69.84;101382.67;1859003;77;20996;-75
2022/05/10 02:59:04;;;;;;;4.30;2.93;;;;;;;6.22;69.81;101386.59;1859407;77;21031;-75
2022/05/10 03:01:53;;;;;;;4.63;3.03;;;;;;;6.15;69.83;101379.25;1858200;77;21012;-75
2022/05/10 03:04:21;;;;;;;11.03;3.50;;;;;;;6.13;69.94;101382.73;1858732;77;21501;-75
2022/05/10 03:06:48;;;;;;;6.20;3.60;;;;;;;6.11;69.99;101384.46;1859193;77;22083;-75
2022/05/10 03:09:16;;;;;;;5.87;3.03;;;;;;;6.09;69.93;101379.69;1859429;77;21524;-75
2022/05/10 03:11:43;;;;;;;4.47;2.87;;;;;;;6.03;69.90;101386.63;1859148;77;20980;-75
2022/05/10 03:14:12;;;;;;;6.53;3.40;;;;;;;6.02;69.91;101384.05;1859423;77;21024;-75
2022/05/10 03:16:39;;;;;;;5.07;3.00;;;;;;;5.98;69.84;101381.01;1859292;77;20980;-75
2022/05/10 03:19:07;;;;;;;8.23;3.00;;;;;;;5.93;69.78;101382.34;1859428;77;21931;-74
2022/05/10 03:21:39;;;;;;;8.20;3.30;;;;;;;5.89;69.81;101387.52;1859137;77;21035;-75
2022/05/10 03:24:07;;;;;;;6.70;3.33;;;;;;;5.86;69.88;101383.63;1859137;77;21031;-75
2022/05/10 03:26:34;;;;;;;6.50;3.10;;;;;;;5.84;69.97;101381.45;1859543;77;21297;-75
2022/05/10 03:29:01;;;;;;;4.13;2.70;;;;;;;5.82;70.05;101384.06;1859125;77;21087;-75
2022/05/10 03:31:29;;;;;;;6.60;3.60;;;;;;;5.80;70.12;101378.85;1860399;76;21089;-75
2022/05/10 03:36:43;;;;;;;4.60;2.83;;;;;;;5.77;70.22;101381.91;1862554;77;21007;-74
2022/05/10 03:39:11;;;;;;;6.37;3.17;;;;;;;5.75;70.32;101381.03;1862631;77;21016;-74
2022/05/10 03:41:39;;;;;;;5.87;3.23;;;;;;;5.74;70.46;101385.38;1862636;77;21473;-75
2022/05/10 03:44:06;;;;;;;5.93;3.43;;;;;;;5.76;70.58;101389.26;1862542;77;21111;-75
2022/05/10 03:46:34;;;;;;;5.17;3.20;;;;;;;5.76;70.67;101386.66;1862517;77;21035;-75
2022/05/10 03:49:01;;;;;;;6.10;3.50;;;;;;;5.78;70.82;101386.23;1862506;77;20972;-75
2022/05/10 03:51:29;;;;;;;5.10;2.83;;;;;;;5.79;70.94;101385.34;1862568;77;20968;-75
2022/05/10 03:53:58;;;;;;;6.20;3.03;;;;;;;5.83;71.05;101388.83;1862465;77;21003;-75
2022/05/10 03:56:25;;;;;;;5.80;3.30;;;;;;;5.85;71.09;101386.66;1862549;77;21139;-75
2022/05/10 03:58:52;;;;;;;6.77;3.37;;;;;;;5.88;71.24;101387.09;1862475;77;21035;-75
2022/05/10 04:01:20;;;;;;;6.27;3.37;;;;;;;5.92;71.38;101381.86;1862538;77;20984;-74
2022/05/10 04:03:48;;;;;;;4.90;3.57;;;;;;;6.02;71.97;101377.11;1862500;77;20992;-76
2022/05/10 04:06:17;;;;;;;8.47;3.77;;;;;;;6.08;72.03;101377.52;1854629;77;21027;-75
2022/05/10 04:08:45;;;;;;;8.27;3.53;;;;;;;6.18;72.62;101378.34;1858054;77;21123;-74
2022/05/10 04:11:13;;;;;;;6.97;3.43;;;;;;;6.31;73.13;101378.73;1862282;77;20999;-75
2022/05/10 04:13:42;;;;;;;6.63;3.37;;;;;;;6.45;73.41;101374.78;1854481;77;20972;-75
2022/05/10 04:16:09;;;;;;;5.33;3.40;;;;;;;6.55;73.14;101370.41;1855414;77;21008;-75
2022/05/10 04:18:36;;;;;;;6.10;3.70;;;;;;;6.58;73.00;101376.45;1862215;77;20985;-75
2022/05/10 04:21:04;;;;;;;6.27;3.50;;;;;;;6.62;72.87;101371.67;1862492;77;21132;-76
2022/05/10 04:23:31;;;;;;;5.80;3.80;;;;;;;6.67;73.07;101366.42;1862108;77;21039;-75
2022/05/10 04:26:07;;;;;;;5.87;3.93;;;;;;;6.78;73.37;101368.53;1862669;77;21008;-75
2022/05/10 04:28:36;;;;;;;6.73;4.20;;;;;;;6.92;73.32;101372.35;1846246;77;20971;-75
2022/05/10 04:31:04;;;;;;;7.40;3.97;;;;;;;7.03;73.02;101373.14;1849750;76;21560;-76
2022/05/10 04:33:32;;;;;;;7.63;3.83;;;;;;;7.15;72.77;101376.98;1860433;77;21917;-75
2022/05/10 04:35:59;;;;;;;6.07;3.50;;;;;;;7.26;72.42;101370.39;1851311;77;20973;-75
2022/05/10 04:38:26;;;;;;;5.60;3.87;;;;;;;7.35;72.34;101363.78;1859981;77;20980;-76
2022/05/10 04:43:43;;;;;;;6.70;3.80;;;;;;;7.52;72.19;101367.55;1799206;79;21016;-75
2022/05/10 04:46:10;;;;;;;5.83;3.90;;;;;;;7.67;72.15;101366.98;1801240;79;21537;-74
2022/05/10 04:48:38;;;;;;;5.10;3.50;;;;;;;7.79;72.06;101360.35;1801223;79;21024;-75
2022/05/10 04:51:06;;;;;;;7.37;3.30;;;;;;;7.90;71.99;101361.10;1800639;79;21080;-75
2022/05/10 04:53:34;;;;;;;8.00;3.30;;;;;;;8.02;71.80;101362.27;1801157;79;21088;-75
2022/05/10 04:56:02;;;;;;;6.00;3.70;;;;;;;8.14;71.71;101363.86;1798850;79;21317;-75
2022/05/10 04:58:30;;;;;;;5.87;3.40;;;;;;;8.26;71.77;101368.09;1792690;79;21124;-76
2022/05/10 05:01:02;;;;;;;6.63;4.20;;;;;;;8.39;71.66;101367.52;1796698;79;21419;-75
2022/05/10 05:03:29;;;;;;;7.27;4.10;;;;;;;8.52;71.61;101363.02;1799110;79;21286;-76
2022/05/10 05:05:56;;;;;;;5.50;3.43;;;;;;;8.63;71.63;101359.37;1800793;79;21013;-75
2022/05/10 05:08:24;;;;;;;7.93;4.43;;;;;;;8.76;71.56;101359.18;1800722;79;21240;-77
2022/05/10 05:10:52;;;;;;;7.20;4.40;;;;;;;8.89;71.43;101365.97;1801093;79;21115;-78
2022/05/10 05:13:19;;;;;;;6.87;4.30;;;;;;;9.03;71.26;101359.23;1800635;79;20961;-80
2022/05/10 05:15:46;;;;;;;10.63;4.40;;;;;;;9.19;71.12;101358.10;1801361;79;21541;-78
2022/05/10 05:18:13;;;;;;;8.67;4.53;;;;;;;9.35;70.90;101360.03;1799347;79;21068;-78
2022/05/10 05:20:41;;;;;;;8.67;5.00;;;;;;;9.51;70.52;101359.34;1781187;80;21244;-77
2022/05/10 05:23:10;;;;;;;7.40;4.43;;;;;;;9.68;70.32;101356.42;1780452;79;21963;-77
2022/05/10 05:25:40;;;;;;;10.13;4.37;;;;;;;9.85;69.91;101353.04;1783656;79;21538;-77
2022/05/10 05:28:08;;;;;;;7.47;4.77;;;;;;;9.99;69.59;101344.47;1777013;79;21055;-77
2022/05/10 05:30:36;;;;;;;10.53;4.70;;;;;;;10.14;69.17;101348.98;1780471;79;21490;-77
2022/05/10 05:33:04;;;;;;;11.23;5.10;;;;;;;10.29;68.76;101345.23;1785704;79;21530;-77
2022/05/10 05:35:31;;;;;;;7.13;4.93;;;;;;;10.40;68.46;101341.48;1790383;78;21121;-77
2022/05/10 05:37:58;;;;;;;7.33;4.60;;;;;;;10.52;68.15;101345.59;1819353;78;21473;-77
2022/05/10 05:40:25;;;;;;;8.70;5.07;;;;;;;10.62;67.87;101347.59;1785197;79;21071;-77
2022/05/10 05:42:54;;;;;;;11.30;5.30;;;;;;;10.70;67.51;101345.20;1786378;80;21048;-77
2022/05/10 05:45:24;;;;;;;9.23;5.03;;;;;;;10.81;67.15;101348.02;1764865;80;21087;-77
2022/05/10 05:47:53;;;;;;;7.20;4.70;;;;;;;10.91;66.99;101348.22;1819903;78;21138;-77
2022/05/10 05:50:24;;;;;;;8.00;4.80;;;;;;;11.01;66.92;101351.05;1822989;77;21079;-77
2022/05/10 05:52:52;;;;;;;7.80;4.97;;;;;;;11.10;66.60;101343.41;1785785;79;21544;-77
2022/05/10 05:55:22;;;;;;;7.95;4.58;;;;;;;11.18;66.35;101346.70;1815794;78;28209;-77
2022/05/10 05:57:49;;;;;;;10.50;4.90;;;;;;;11.29;66.25;101342.52;1794548;80;21481;-77
2022/05/10 06:00:21;;;;;;;10.77;5.13;;;;;;;11.39;66.03;101344.88;1823570;78;21106;-77
2022/05/10 06:02:50;;;;;;;7.50;5.03;;;;;;;11.48;65.85;101338.52;1791143;80;21003;-77
2022/05/10 06:05:18;;;;;;;6.57;4.83;;;;;;;11.58;65.82;101344.38;1820424;78;21000;-76
2022/05/10 06:07:45;;;;;;;8.90;5.13;;;;;;;11.68;65.45;101339.77;1787150;80;21005;-77
2022/05/10 06:10:13;;;;;;;9.47;5.30;;;;;;;11.77;65.20;101333.80;1790382;80;21055;-77
2022/05/10 06:12:41;;;;;;;10.53;5.33;;;;;;;11.84;65.09;101331.42;1787190;80;21172;-77
2022/05/10 06:15:13;;;;;;;9.23;5.75;;;;;;;11.95;64.88;101328.54;1790346;80;20980;-76
2022/05/10 06:17:44;;;;;;;9.35;5.25;;;;;;;12.04;64.65;101329.58;1787320;80;21013;-77
2022/05/10 06:20:16;;;;;;;8.40;5.42;;;;;;;12.14;64.52;101331.94;1786808;80;21045;-76
2022/05/10 06:22:45;;;;;;;6.72;4.72;;;;;;;12.24;64.37;101329.47;1787052;80;21033;-76
2022/05/10 06:25:17;;;;;;;11.57;5.05;;;;;;;12.35;64.15;101330.47;1786872;80;21868;-77
2022/05/10 06:27:48;;;;;;;7.33;5.25;;;;;;;12.45;64.16;101328.84;1787102;80;21188;-77
2022/05/10 06:30:16;;;;;;;10.75;5.50;;;;;;;12.57;63.88;101326.28;1786779;80;21585;-78
2022/05/10 06:32:43;;;;;;;10.10;4.87;;;;;;;12.66;63.73;101331.25;1787032;80;21077;-76
2022/05/10 06:35:11;;;;;;;12.30;5.30;;;;;;;12.77;63.42;101327.44;1795276;79;21078;-77
2022/05/10 06:40:24;;;;;;;11.35;5.17;;;;;;;12.94;62.98;101311.97;1797378;79;20947;-77
2022/05/10 06:42:51;;;;;;;9.53;5.50;;;;;;;13.04;62.72;101309.91;1797410;79;20985;-77
2022/05/10 06:45:19;;;;;;;11.08;5.00;;;;;;;13.13;62.63;101314.86;1765925;81;21508;-77
2022/05/10 06:47:49;;;;;;;7.95;5.17;;;;;;;13.20;62.51;101311.59;1819605;78;20984;-78
2022/05/10 06:50:20;;;;;;;9.98;5.03;;;;;;;13.31;62.69;101308.17;1819931;78;21132;-77
2022/05/10 06:52:51;;;;;;;9.23;4.70;;;;;;;13.43;62.53;101305.57;1819428;78;21103;-78
2022/05/10 06:55:18;;;;;;;9.10;4.80;;;;;;;13.52;62.30;101306.12;1818168;78;20981;-76
2022/05/10 06:57:45;;;;;;;9.53;5.40;;;;;;;13.65;62.54;101301.73;1819581;78;21020;-77
2022/05/10 07:00:16;;;;;;;11.08;5.30;;;;;;;13.77;62.01;101299.53;1812221;78;21122;-77
2022/05/10 07:02:44;;;;;;;9.10;5.08;;;;;;;13.91;61.91;101298.15;1815236;78;21108;-77
2022/05/10 07:05:14;;;;;;;11.83;5.10;;;;;;;14.00;61.61;101293.41;1812391;78;21032;-78
2022/05/10 07:07:41;;;;;;;11.95;5.62;;;;;;;14.11;61.36;101292.16;1810842;78;21067;-77
2022/05/10 07:10:11;;;;;;;9.03;5.33;;;;;;;14.24;61.19;101292.08;1802082;79;21091;-77
2022/05/10 07:12:42;;;;;;;6.65;5.08;;;;;;;14.36;60.99;101291.63;1812822;78;20997;-76
2022/05/10 07:15:18;;;;;;;9.98;5.53;;;;;;;14.48;60.91;101281.91;1811995;78;21158;-76
2022/05/10 07:17:53;;;;;;;7.72;4.83;;;;;;;14.60;60.45;101287.18;1794397;79;22040;-78
2022/05/10 07:20:21;;;;;;;8.95;5.08;;;;;;;14.72;60.07;101284.54;1794041;80;21082;-76
2022/05/10 07:22:49;;;;;;;10.32;4.83;;;;;;;14.83;59.85;101286.28;1779710;80;21041;-76
2022/05/10 07:25:23;;;;;;;12.60;5.50;;;;;;;14.93;59.56;101281.00;1798290;78;21026;-76
2022/05/10 07:27:50;;;;;;;8.60;4.78;;;;;;;15.06;59.47;101276.09;1792927;78;21184;-76
2022/05/10 07:30:19;;;;;;;10.48;5.12;;;;;;;15.15;59.28;101271.73;1819825;78;20981;-76
2022/05/10 07:32:46;;;;;;;8.63;4.83;;;;;;;15.28;59.21;101269.91;1810461;79;21461;-76
2022/05/10 07:35:13;;;;;;;8.90;4.50;;;;;;;15.39;58.88;101268.98;1792155;80;21086;-76
2022/05/10 07:37:40;;;;;;;8.33;4.45;;;;;;;15.50;58.66;101269.37;1824721;78;21004;-77
2022/05/10 07:40:11;;;;;;;10.63;4.70;;;;;;;15.68;58.62;101266.83;1824561;78;21458;-77
2022/05/10 07:42:40;;;;;;;8.18;4.30;;;;;;;15.81;58.15;101264.92;1792177;80;21463;-75
2022/05/10 07:45:11;;;;;;;10.58;4.67;;;;;;;15.93;57.90;101258.22;1824604;78;21059;-75
2022/05/10 07:47:43;;;;;;;7.97;4.70;;;;;;;16.05;57.48;101259.47;1792158;80;21505;-76
2022/05/10 07:50:10;;;;;;;10.13;4.70;;;;;;;16.15;57.08;101254.13;1814606;78;20977;-75
2022/05/10 07:52:41;;;;;;;8.68;5.28;;;;;;;16.28;56.96;101259.23;1783072;80;21926;-75
2022/05/10 07:55:10;;;;;;;8.33;4.95;;;;;;;16.40;56.90;101256.94;1801218;79;21012;-74
2022/05/10 07:57:36;;;;;;;8.78;4.42;;;;;;;16.55;56.68;101258.02;1792695;80;21009;-77
2022/05/10 08:00:05;;;;;;;7.97;4.25;;;;;;;16.69;56.71;101258.19;1761179;81;20964;-75
2022/05/10 08:02:33;;;;;;;;;;;;;;;16.81;56.11;101249.66;1794804;79;21012;-74
2022/05/10 08:05:00;;;;;;;7.17;4.00;;;;;;;17.07;55.75;101244.84;1792602;80;21119;-74
2022/05/10 08:07:28;;;;;;;8.13;4.22;;;;;;;17.07;55.75;101244.84;1761473;81;21485;-74
2022/05/10 08:09:55;;;;;;;7.20;4.03;;;;;;;17.19;55.18;101240.73;1792402;80;21023;-74
2022/05/10 08:12:22;;;;;;;8.85;3.95;;;;;;;17.43;54.62;101242.12;1792686;80;21004;-74
2022/05/10 08:14:49;;;;;;;8.25;4.00;;;;;;;17.43;54.62;101242.12;1761084;81;21000;-74
2022/05/10 08:17:16;;;;;;;11.68;4.35;;;;;;;17.64;53.82;101237.94;1792751;79;21086;-74
2022/05/10 08:19:45;;;;;;;8.60;3.75;;;;;;;17.64;53.82;101237.94;1792402;80;20984;-74
2022/05/10 08:22:12;;;;;;;8.83;4.30;;;;;;;17.73;53.65;101238.77;1770894;80;21114;-74
2022/05/10 08:24:40;;;;;;;6.22;3.45;;;;;;;17.86;53.49;101230.58;1784621;80;21004;-74
2022/05/10 08:27:07;;;;;;;7.40;3.77;;;;;;;18.04;53.14;101240.19;1784844;80;22144;-74
2022/05/10 08:29:34;;;;;;;8.05;3.58;;;;;;;18.12;52.44;101234.44;1782673;80;22294;-74
2022/05/10 08:32:02;;;;;;;7.00;3.40;;;;;;;18.19;52.22;101230.52;1784858;80;21067;-75
2022/05/10 08:34:29;;;;;;;7.22;3.45;;;;;;;18.29;51.77;101233.53;1797235;79;21013;-74
2022/05/10 08:36:57;;;;;;;7.67;3.15;;;;;;;18.36;51.25;101222.94;1830972;78;20992;-74
2022/05/10 08:39:25;;;;;;;6.10;3.58;;;;;;;18.44;50.86;101227.34;1797987;79;21164;-74
2022/05/10 08:42:20;;;;;;;5.85;3.10;;;;;;;18.59;50.77;101221.61;1830871;78;21115;-74
2022/05/10 08:44:53;;;;;;;7.35;3.08;;;;;;;18.78;50.33;101221.92;1797929;79;21020;-75
2022/05/10 08:47:19;;;;;;;7.72;3.45;;;;;;;18.86;49.83;101217.87;1830517;78;21003;-75
2022/05/10 08:50:01;;;;;;;6.53;3.27;;;;;;;19.05;50.18;101211.00;1798076;79;21000;-75
2022/05/10 08:52:36;;;;;;;6.90;2.98;;;;;;;19.34;49.84;101213.25;1771500;79;21474;-75
2022/05/10 08:55:06;;;;;;;7.65;3.35;;;;;;;19.63;49.11;101203.94;1803907;78;21475;-75
2022/05/10 08:57:47;;;;;;;6.20;2.92;;;;;;;19.81;48.24;101207.27;1798072;79;20996;-78
2022/05/10 09:00:42;;;;;;;6.55;2.67;;;;;;;19.91;47.39;101208.41;1796717;79;21500;-76
2022/05/10 09:03:44;;;;;;;6.55;2.33;;;;;;;20.00;47.07;101205.64;1768243;79;21005;-75
2022/05/10 09:06:23;;;;;;;6.83;2.92;;;;;;;20.17;46.12;101215.20;1797919;79;21043;-80
2022/05/10 09:09:01;;;;;;;7.12;2.85;;;;;;;20.26;45.62;101206.64;1764382;81;21288;-75
2022/05/10 09:11:34;;;;;;;4.95;2.75;;;;;;;20.38;45.29;101199.66;1702329;84;21102;-75
2022/05/10 09:14:01;;;;;;;6.75;3.17;;;;;;;20.52;45.15;101195.60;1733788;82;21131;-75
2022/05/10 09:16:28;;;;;;;7.10;2.65;;;;;;;20.67;45.51;101197.30;1733799;82;21516;-77
2022/05/10 09:18:54;;;;;;;8.80;2.72;;;;;;;20.74;44.67;101201.72;1734028;82;21052;-76
2022/05/10 09:21:43;;;;;;;5.97;2.80;;;;;;;20.83;44.45;101197.58;1733837;82;21548;-75
2022/05/10 09:24:35;;;;;;;8.35;3.10;;;;;;;20.94;43.82;101190.56;1733903;82;21614;-78
2022/05/10 09:27:06;;;;;;;6.92;2.70;;;;;;;21.07;43.41;101185.74;1732827;82;21138;-77
2022/05/10 09:29:44;;;;;;;5.47;2.60;;;;;;;21.10;42.83;101186.37;1734038;82;21048;-78
2022/05/10 09:35:21;;;;;;;5.60;2.65;;;;;;;21.22;42.17;101178.48;1748395;81;21142;-77
2022/05/10 09:38:06;;;;;;;6.17;3.02;;;;;;;21.27;41.69;101183.88;1728137;82;21219;-78
2022/05/10 09:40:46;;;;;;;6.62;2.72;;;;;;;21.24;41.60;101171.25;1700506;84;21182;-77
2022/05/10 09:43:32;;;;;;;6.10;2.58;;;;;;;21.34;41.42;101181.65;1717657;82;21051;-76
2022/05/10 09:46:19;;;;;;;6.10;3.05;;;;;;;21.45;41.30;101167.11;1733600;82;21051;-77
2022/05/10 09:48:47;;;;;;;7.87;2.90;;;;;;;21.64;40.84;101171.12;1768725;80;21137;-76
2022/05/10 09:51:39;;;;;;;6.30;2.70;;;;;;;21.75;40.48;101168.05;1830344;78;21011;-77
2022/05/10 09:54:20;;;;;;;5.37;2.67;;;;;;;21.87;40.19;101162.83;1844826;77;21012;-78
2022/05/10 09:56:51;;;;;;;6.95;2.40;;;;;;;22.05;40.03;101160.97;1841738;77;21018;-78
2022/05/10 09:59:24;;;;;;;6.33;3.00;;;;;;;22.19;39.62;101151.14;1844951;77;22647;-77
2022/05/10 10:01:56;;;;;;;6.33;2.40;;;;;;;22.25;39.27;101148.88;1795471;79;21042;-79
2022/05/10 10:04:40;;;;;;;8.95;3.20;;;;;;;22.36;38.93;101146.72;1785208;79;21030;-79
2022/05/10 10:07:16;;;;;;;4.80;2.72;;;;;;;22.49;38.99;101144.84;1794123;78;21028;-77
2022/05/10 10:09:47;;;;;;;5.42;2.37;;;;;;;22.68;38.49;101134.95;1819538;78;20990;-77
2022/05/10 10:12:32;;;;;;;5.25;2.52;;;;;;;22.97;38.74;101142.56;1819817;78;21021;-77
2022/05/10 10:15:02;;;;;;;5.53;2.27;;;;;;;23.27;38.47;101136.64;1820244;78;21090;-76
2022/05/10 10:17:35;;;;;;;6.78;2.67;;;;;;;23.53;38.18;101137.27;1819736;78;21009;-76
2022/05/10 10:20:25;;;;;;;5.08;2.37;;;;;;;23.75;37.91;101140.91;1820140;78;21040;-77
2022/05/10 10:22:56;;;;;;;5.40;2.65;;;;;;;23.96;37.36;101139.17;1819866;78;21006;-78
2022/05/10 10:25:28;;;;;;;5.22;2.67;;;;;;;24.06;36.85;101128.56;1819938;78;20993;-77
2022/05/10 10:28:00;;;;;;;5.10;2.33;;;;;;;24.29;36.45;101123.97;1816628;78;21976;-81
2022/05/10 10:30:45;;;;;;;7.55;2.47;;;;;;;24.47;36.28;101114.44;1819671;78;21052;-79
2022/05/10 10:33:23;;;;;;;6.97;2.33;;;;;;;24.75;36.35;101114.77;1819841;78;21592;-78
2022/05/10 10:36:04;;;;;;;5.05;2.62;;;;;;;24.97;35.96;101107.53;1819298;78;21049;-81
2022/05/10 10:38:55;;;;;;;9.33;2.60;;;;;;;25.29;35.97;101104.27;1819561;78;21566;-77
2022/05/10 10:41:46;;;;;;;4.10;2.25;;;;;;;25.56;35.47;101105.00;1817646;78;21313;-77
2022/05/10 10:44:30;;;;;;;6.00;2.77;;;;;;;25.78;35.16;101101.24;1818960;78;21694;-77
2022/05/10 10:47:05;;;;;;;5.12;2.55;;;;;;;25.85;34.77;101100.72;1819103;78;20989;-77
2022/05/10 10:50:19;;;;;;;6.15;2.70;;;;;;;25.98;34.55;101099.46;1819184;78;20990;-78
2022/05/10 10:52:46;;;;;;;5.53;2.50;;;;;;;26.00;34.10;101093.46;1819279;78;21013;-76
2022/05/10 10:55:18;;;;;;;6.50;2.83;;;;;;;26.12;33.80;101085.27;1819526;78;21095;-79
2022/05/10 10:58:21;;;;;;;5.17;2.62;;;;;;;26.15;33.84;101081.80;1819081;78;21029;-76
2022/05/10 11:00:53;;;;;;;6.80;2.80;;;;;;;26.31;33.89;101072.33;1805970;78;21564;-76
2022/05/10 11:03:31;;;;;;;6.60;2.80;;;;;;;26.47;33.97;101066.72;1804312;77;21103;-76
2022/05/10 11:06:10;;;;;;;6.03;2.62;;;;;;;26.59;33.86;101065.23;1787575;80;20980;-77
2022/05/10 11:09:09;;;;;;;10.78;3.20;;;;;;;26.66;33.65;101060.49;1788301;78;22031;-76
2022/05/10 11:12:21;;;;;;;7.47;3.00;;;;;;;26.87;33.95;101048.67;1784233;78;21071;-75
2022/05/10 11:15:28;;;;;;;4.67;2.80;;;;;;;27.03;33.50;101054.78;1812539;78;21024;-76
2022/05/10 11:18:37;;;;;;;6.78;3.27;;;;;;;27.12;33.34;101045.80;1781780;80;21536;-76
2022/05/10 11:21:27;;;;;;;;;;;;;;;27.32;32.81;101049.27;1752939;81;21059;-77
2022/05/10 11:24:09;;;;;;;4.17;2.25;;;;;;;27.49;32.37;101044.45;1751934;81;21062;-77
2022/05/10 11:26:56;;;;;;;4.75;2.37;;;;;;;27.73;32.68;101040.30;1751203;81;21083;-76
2022/05/10 11:29:56;;;;;;;3.85;2.10;;;;;;;27.92;32.04;101042.05;1758920;80;21070;-82
2022/05/10 11:33:06;;;;;;;6.08;2.65;;;;;;;27.94;31.51;101042.23;1818791;78;21036;-79
2022/05/10 11:36:05;;;;;;;5.40;2.55;;;;;;;27.80;30.90;101037.39;1796801;79;21000;-87
2022/05/10 11:38:40;;;;;;;6.05;2.33;;;;;;;27.86;30.75;101026.50;1797144;78;21106;-77
2022/05/10 11:41:33;;;;;;;5.65;2.37;;;;;;;28.05;30.64;101028.16;1817619;78;21090;-83
2022/05/10 11:44:34;;;;;;;4.75;2.00;;;;;;;28.23;30.60;101018.22;1795615;79;21596;-82
2022/05/10 11:47:40;;;;;;;5.00;2.42;;;;;;;28.37;30.24;101008.71;1807802;78;20919;-79
2022/05/10 11:53:59;;;;;;;3.85;2.33;;;;;;;28.63;29.83;101004.72;1811575;78;21019;-85
2022/05/10 11:56:36;;;;;;;3.92;1.80;;;;;;;28.73;29.71;101007.28;1816573;78;21023;-80
2022/05/10 11:59:07;;;;;;;4.20;2.30;;;;;;;28.69;29.35;101005.42;1827941;78;21078;-80
2022/05/10 12:01:45;;;;;;;5.10;2.17;;;;;;;28.68;28.99;100999.66;1785727;78;21051;-82
2022/05/10 12:04:40;;;;;;;7.58;2.40;;;;;;;28.70;28.67;100992.27;1797259;79;21016;-79
2022/05/10 12:07:24;;;;;;;2.80;1.70;;;;;;;28.64;28.53;100988.36;1814186;77;21047;-80
2022/05/10 12:10:24;;;;;;;4.12;2.15;;;;;;;28.63;28.68;100981.28;1811988;78;21075;-78
2022/05/10 12:12:56;;;;;;;4.67;1.90;;;;;;;28.63;28.62;100985.33;1795660;79;20900;-78
2022/05/10 12:21:35;;;;;;;4.95;2.30;;;;;;;28.41;28.12;100975.89;1733574;79;21385;-78
2022/05/10 12:24:16;;;;;;;3.50;2.10;;;;;;;28.32;28.24;100979.52;1756160;80;21085;-78
2022/05/10 12:26:48;;;;;;;5.12;2.30;;;;;;;28.31;28.15;100962.17;1775350;78;21018;-80
2022/05/10 12:29:42;;;;;;;5.08;2.30;;;;;;;28.18;27.88;100966.63;1799804;79;21060;-79